Time;durP1;ratioP1;P1;durP2;ratioP2;P2;SDS_P1;SDS_P2;PMS_P1;PMS_P2;Temp;Humidity;BMP_temperature;BMP_pressure;BME280_temperature;BME280_humidity;BME280_pressure;Samples;Min_cycle;Max_cycle;Signal;HPM_P1;HPM_P2
2023/06/14 00:01:55;;;;;;;5.45;2.65;;;15.60;74.80;;;;;;5046106;28;20037;-74
2023/06/14 00:04:21;;;;;;;6.03;3.10;;;15.60;75.00;;;;;;5057114;28;20040;-74
2023/06/14 00:06:48;;;;;;;5.60;2.50;;;15.60;75.20;;;;;;5013096;28;20064;-73
2023/06/14 00:09:17;;;;;;;4.15;2.55;;;15.50;75.70;;;;;;5063653;28;20074;-74
2023/06/14 00:11:43;;;;;;;5.82;2.65;;;15.50;75.70;;;;;;5089840;28;20670;-73
2023/06/14 00:14:09;;;;;;;7.53;2.65;;;15.40;76.30;;;;;;5068385;28;20032;-73
2023/06/14 00:16:35;;;;;;;9.63;3.20;;;15.40;76.30;;;;;;5052501;28;20040;-73
2023/06/14 00:19:04;;;;;;;7.45;2.72;;;15.30;76.90;;;;;;5061364;28;20037;-73
2023/06/14 00:21:30;;;;;;;5.65;2.85;;;15.30;77.10;;;;;;5040391;28;20062;-74
2023/06/14 00:23:58;;;;;;;8.10;3.17;;;15.30;77.30;;;;;;5041201;28;20048;-73
2023/06/14 00:26:23;;;;;;;9.98;3.40;;;15.20;77.30;;;;;;5072825;28;20378;-74
2023/06/14 00:28:49;;;;;;;5.85;2.70;;;15.20;77.40;;;;;;5049680;28;20044;-73
2023/06/14 00:31:15;;;;;;;9.68;2.90;;;15.20;77.40;;;;;;5054292;28;20055;-74
2023/06/14 00:33:40;;;;;;;7.65;2.58;;;15.10;77.60;;;;;;5054954;28;20514;-73
2023/06/14 00:36:06;;;;;;;4.65;2.75;;;15.10;77.90;;;;;;5055914;28;20385;-73
2023/06/14 00:38:32;;;;;;;7.13;3.00;;;15.00;78.10;;;;;;5044151;28;20037;-73
2023/06/14 00:40:57;;;;;;;5.25;2.80;;;15.00;78.10;;;;;;5068226;28;20037;-74
2023/06/14 00:43:23;;;;;;;5.05;2.90;;;15.00;78.30;;;;;;5060522;28;20040;-73
2023/06/14 00:45:51;;;;;;;6.43;3.20;;;15.00;78.90;;;;;;5044113;28;20033;-74
2023/06/14 00:48:17;;;;;;;4.70;3.00;;;14.90;78.80;;;;;;5059580;28;20390;-73
2023/06/14 00:50:45;;;;;;;7.85;3.00;;;14.90;79.00;;;;;;5064617;28;20095;-73
2023/06/14 00:53:12;;;;;;;4.95;2.85;;;14.80;78.90;;;;;;5045900;28;20551;-74
2023/06/14 00:55:38;;;;;;;5.35;2.97;;;14.80;79.10;;;;;;5052688;28;20033;-73
2023/06/14 00:58:04;;;;;;;8.55;2.92;;;14.80;79.60;;;;;;5051291;28;20088;-73
2023/06/14 01:00:30;;;;;;;7.80;2.88;;;14.70;79.50;;;;;;5053691;28;20077;-73
2023/06/14 01:02:56;;;;;;;8.27;2.83;;;14.70;79.60;;;;;;5069261;28;20037;-74
2023/06/14 01:05:23;;;;;;;6.15;2.97;;;14.70;79.90;;;;;;5063599;28;20055;-73
2023/06/14 01:08:16;;;;;;;5.00;2.70;;;14.60;80.60;;;;;;5047823;28;20041;-73
2023/06/14 01:11:12;;;;;;;5.45;3.20;;;14.60;81.20;;;;;;5086472;28;20041;-73
2023/06/14 01:13:45;;;;;;;5.40;2.90;;;14.60;81.40;;;;;;5051688;28;20500;-74
2023/06/14 01:16:12;;;;;;;18.58;3.45;;;14.50;81.20;;;;;;5050954;28;20545;-73
2023/06/14 01:18:38;;;;;;;5.53;3.03;;;14.50;81.30;;;;;;5068634;28;20036;-73
2023/06/14 01:21:05;;;;;;;7.03;3.30;;;14.50;81.40;;;;;;5074841;28;20620;-73
2023/06/14 01:23:35;;;;;;;7.93;3.45;;;14.50;82.20;;;;;;5059224;28;20452;-73
2023/06/14 01:26:02;;;;;;;5.00;2.90;;;14.40;83.40;;;;;;5030748;28;20036;-73
2023/06/14 01:28:33;;;;;;;5.85;3.40;;;14.30;83.30;;;;;;5060047;28;20621;-73
2023/06/14 01:31:03;;;;;;;4.43;2.90;;;14.30;83.40;;;;;;5062163;28;20029;-73
2023/06/14 01:33:32;;;;;;;5.43;2.92;;;14.30;83.30;;;;;;5096331;27;20037;-73
2023/06/14 01:35:58;;;;;;;7.68;3.10;;;14.30;83.70;;;;;;5049007;28;20040;-73
2023/06/14 01:38:26;;;;;;;4.32;2.80;;;14.20;84.20;;;;;;5042056;28;20068;-73
2023/06/14 01:40:55;;;;;;;5.28;3.10;;;14.20;84.30;;;;;;5035166;28;20613;-73
2023/06/14 01:43:22;;;;;;;8.00;3.40;;;14.20;84.70;;;;;;5061164;28;20422;-74
2023/06/14 01:45:50;;;;;;;5.85;2.95;;;14.20;85.30;;;;;;5058124;28;20075;-74
2023/06/14 01:48:16;;;;;;;7.25;3.50;;;14.20;85.30;;;;;;5046739;28;20043;-73
2023/06/14 01:50:42;;;;;;;4.45;2.90;;;14.10;85.80;;;;;;5049437;28;20045;-74
2023/06/14 01:53:09;;;;;;;5.00;2.85;;;14.10;86.90;;;;;;5100011;27;20033;-74
2023/06/14 01:55:37;;;;;;;4.57;2.90;;;14.10;86.40;;;;;;5073632;28;20037;-74
2023/06/14 01:58:03;;;;;;;5.25;2.80;;;14.10;86.70;;;;;;5065193;28;20064;-74
2023/06/14 02:00:29;;;;;;;5.25;3.10;;;14.00;87.50;;;;;;5080102;28;20076;-74
2023/06/14 02:02:55;;;;;;;8.15;3.20;;;14.10;87.10;;;;;;5057356;28;20040;-74
2023/06/14 02:05:21;;;;;;;6.70;2.70;;;14.00;87.30;;;;;;5048800;28;20028;-74
2023/06/14 02:07:47;;;;;;;5.32;2.90;;;14.00;87.80;;;;;;5071924;28;20500;-74
2023/06/14 02:10:14;;;;;;;6.70;2.97;;;14.00;87.60;;;;;;5041550;28;20307;-74
2023/06/14 02:12:40;;;;;;;6.80;2.90;;;13.90;88.10;;;;;;5061932;28;20041;-74
2023/06/14 02:15:06;;;;;;;6.55;3.08;;;13.90;88.70;;;;;;5043586;28;20041;-74
2023/06/14 02:17:33;;;;;;;7.40;3.40;;;13.90;88.70;;;;;;5095620;27;20047;-74
2023/06/14 02:19:59;;;;;;;6.07;3.72;;;13.80;89.50;;;;;;5061912;28;20037;-73
2023/06/14 02:22:25;;;;;;;5.72;2.80;;;13.80;89.80;;;;;;5045734;28;20040;-74
2023/06/14 02:24:51;;;;;;;6.07;3.40;;;13.80;90.00;;;;;;5063559;28;20068;-74
2023/06/14 02:27:17;;;;;;;7.10;2.90;;;13.80;90.50;;;;;;5031297;28;20040;-74
2023/06/14 02:29:43;;;;;;;4.22;3.13;;;13.70;90.90;;;;;;5063801;28;20037;-74
2023/06/14 02:32:09;;;;;;;6.32;3.17;;;13.70;91.00;;;;;;5045079;28;20090;-73
2023/06/14 02:34:34;;;;;;;6.75;3.15;;;13.70;90.90;;;;;;5054534;28;20042;-74
2023/06/14 02:37:02;;;;;;;4.82;3.00;;;13.70;90.90;;;;;;5072104;28;20438;-74
2023/06/14 02:39:29;;;;;;;5.13;3.13;;;13.70;91.20;;;;;;5053880;28;20124;-74
2023/06/14 02:41:54;;;;;;;8.65;3.47;;;13.70;91.30;;;;;;5036269;28;20047;-74
2023/06/14 02:44:26;;;;;;;7.15;3.35;;;13.70;91.30;;;;;;5018006;28;20029;-74
2023/06/14 02:46:52;;;;;;;6.95;3.42;;;13.60;91.70;;;;;;5062680;28;20592;-73
2023/06/14 02:49:18;;;;;;;6.05;3.20;;;13.60;91.70;;;;;;5061126;28;20127;-73
2023/06/14 02:51:43;;;;;;;5.63;3.20;;;13.50;92.20;;;;;;5047357;28;20561;-73
2023/06/14 02:54:10;;;;;;;5.43;3.25;;;13.50;92.80;;;;;;5056245;28;20563;-74
2023/06/14 02:56:35;;;;;;;7.20;3.13;;;13.50;92.80;;;;;;5048767;28;20124;-74
2023/06/14 02:59:02;;;;;;;7.10;3.47;;;13.40;92.70;;;;;;5026166;28;20190;-74
2023/06/14 03:01:34;;;;;;;8.27;3.03;;;13.40;93.20;;;;;;5055081;28;20726;-74
2023/06/14 03:04:01;;;;;;;5.00;3.22;;;13.40;93.40;;;;;;5044450;28;20473;-73
2023/06/14 03:06:30;;;;;;;5.97;3.33;;;13.40;93.20;;;;;;5096697;27;20661;-74
2023/06/14 03:08:59;;;;;;;5.43;3.45;;;13.30;94.20;;;;;;5060818;28;20060;-73
2023/06/14 03:11:26;;;;;;;8.30;3.65;;;13.30;94.60;;;;;;5037782;28;20043;-74
2023/06/14 03:13:52;;;;;;;6.75;3.55;;;13.30;94.50;;;;;;5046578;28;20048;-74
2023/06/14 03:16:21;;;;;;;8.23;3.30;;;13.30;94.50;;;;;;5062469;28;20061;-74
2023/06/14 03:18:48;;;;;;;6.90;3.25;;;13.30;95.00;;;;;;5060605;28;20044;-73
2023/06/14 03:21:15;;;;;;;6.28;3.40;;;13.30;95.30;;;;;;5064737;28;20406;-74
2023/06/14 03:23:42;;;;;;;6.28;3.50;;;13.30;95.40;;;;;;5035068;28;20441;-74
2023/06/14 03:26:08;;;;;;;7.88;3.33;;;13.20;95.60;;;;;;5092149;27;20444;-74
2023/06/14 03:28:34;;;;;;;11.00;3.33;;;13.20;96.00;;;;;;5087545;27;20045;-74
2023/06/14 03:31:01;;;;;;;5.57;3.40;;;13.20;96.30;;;;;;5045884;28;20040;-74
2023/06/14 03:33:27;;;;;;;8.52;3.40;;;13.20;96.50;;;;;;5062711;28;20382;-74
2023/06/14 03:35:53;;;;;;;6.03;3.20;;;13.20;96.70;;;;;;5043105;28;20041;-74
2023/06/14 03:38:18;;;;;;;7.78;4.03;;;13.20;97.40;;;;;;5078509;28;20037;-74
2023/06/14 03:40:45;;;;;;;6.95;3.80;;;13.30;96.90;;;;;;5044653;28;20051;-74
2023/06/14 03:43:10;;;;;;;7.22;3.28;;;13.30;97.30;;;;;;5045348;28;20039;-74
2023/06/14 03:45:36;;;;;;;6.00;3.47;;;13.30;97.60;;;;;;5030083;28;20119;-74
2023/06/14 03:48:02;;;;;;;6.75;3.55;;;13.30;98.20;;;;;;5090657;28;20044;-74
2023/06/14 03:50:28;;;;;;;5.32;3.25;;;13.30;98.20;;;;;;5095100;27;20048;-74
2023/06/14 03:52:54;;;;;;;5.78;3.92;;;13.30;97.90;;;;;;5046755;28;20044;-73
2023/06/14 03:55:19;;;;;;;7.13;3.55;;;13.40;98.50;;;;;;5057885;28;20032;-74
2023/06/14 03:57:45;;;;;;;6.25;3.75;;;13.40;98.70;;;;;;5057785;28;20099;-74
2023/06/14 04:00:12;;;;;;;8.10;3.67;;;13.40;98.70;;;;;;5063247;28;20048;-74
2023/06/14 04:02:38;;;;;;;5.45;3.38;;;13.40;99.00;;;;;;5047107;28;20052;-74
2023/06/14 04:05:08;;;;;;;7.85;3.85;;;13.40;99.40;;;;;;5060460;28;20044;-74
2023/06/14 04:07:39;;;;;;;6.55;3.78;;;13.40;99.70;;;;;;5058853;28;20048;-74
2023/06/14 04:10:06;;;;;;;10.07;3.88;;;13.40;99.80;;;;;;5046541;28;20129;-73
2023/06/14 04:12:32;;;;;;;5.80;3.17;;;13.40;99.90;;;;;;5051112;28;20067;-74
2023/06/14 04:14:58;;;;;;;8.50;3.70;;;13.40;99.90;;;;;;5061877;28;20513;-74
2023/06/14 04:17:23;;;;;;;8.40;3.55;;;13.50;99.90;;;;;;5057508;28;20118;-74
2023/06/14 04:19:49;;;;;;;7.97;3.78;;;13.50;99.90;;;;;;5060396;28;20041;-74
2023/06/14 04:22:15;;;;;;;5.80;3.45;;;13.50;99.90;;;;;;5036194;28;20579;-74
2023/06/14 04:24:42;;;;;;;5.85;3.65;;;13.50;99.90;;;;;;5041823;28;20036;-74
2023/06/14 04:27:08;;;;;;;10.18;3.50;;;13.60;99.90;;;;;;5029708;28;20067;-74
2023/06/14 04:29:33;;;;;;;6.65;3.70;;;13.60;99.90;;;;;;5058434;28;20072;-74
2023/06/14 04:32:00;;;;;;;6.28;3.92;;;13.60;99.90;;;;;;5071852;28;20045;-74
2023/06/14 04:34:29;;;;;;;6.53;3.70;;;13.70;99.90;;;;;;5046477;28;20445;-74
2023/06/14 04:36:56;;;;;;;7.60;4.30;;;13.70;99.90;;;;;;5072774;28;20703;-74
2023/06/14 04:39:22;;;;;;;8.80;4.22;;;13.70;99.90;;;;;;5059171;28;20047;-74
2023/06/14 04:41:52;;;;;;;5.45;3.47;;;13.80;99.90;;;;;;5043523;28;20044;-74
2023/06/14 04:44:19;;;;;;;8.10;3.90;;;13.80;99.90;;;;;;5044286;28;20040;-74
2023/06/14 04:46:45;;;;;;;10.30;4.40;;;13.80;99.90;;;;;;5060128;28;20048;-74
2023/06/14 04:49:18;;;;;;;7.15;3.80;;;13.90;99.90;;;;;;5046353;28;20029;-74
2023/06/14 04:51:44;;;;;;;;;;;14.00;99.90;;;;;;5090504;28;20072;-74
2023/06/14 04:54:13;;;;;;;5.95;4.20;;;14.00;99.90;;;;;;5064058;28;19917;-74
2023/06/14 04:56:42;;;;;;;12.90;4.32;;;14.10;99.90;;;;;;5044398;28;20099;-74
2023/06/14 04:59:08;;;;;;;11.55;4.22;;;14.20;99.90;;;;;;5061454;28;20138;-74
2023/06/14 05:01:35;;;;;;;4.75;3.75;;;14.30;99.90;;;;;;5048160;28;20048;-74
2023/06/14 05:04:01;;;;;;;7.00;4.43;;;14.30;99.90;;;;;;5037325;28;20033;-74
2023/06/14 05:06:27;;;;;;;7.57;3.88;;;14.40;99.90;;;;;;5060991;28;20052;-74
2023/06/14 05:08:53;;;;;;;5.47;3.97;;;14.50;99.90;;;;;;5051425;28;20051;-75
2023/06/14 05:11:19;;;;;;;7.47;4.30;;;14.60;99.90;;;;;;5070451;28;20151;-74
2023/06/14 05:13:45;;;;;;;7.97;3.88;;;14.70;99.90;;;;;;5061742;28;20045;-74
2023/06/14 05:16:15;;;;;;;6.70;3.83;;;14.70;99.90;;;;;;5084156;28;20040;-74
2023/06/14 05:18:41;;;;;;;7.18;3.72;;;14.80;99.90;;;;;;5047465;28;20068;-74
2023/06/14 05:21:07;;;;;;;6.18;3.70;;;14.90;99.90;;;;;;5038494;28;20061;-74
2023/06/14 05:23:32;;;;;;;5.43;3.90;;;15.00;99.90;;;;;;5037553;28;20119;-74
2023/06/14 05:25:58;;;;;;;10.98;4.60;;;15.00;99.90;;;;;;5062665;28;20482;-74
2023/06/14 05:28:24;;;;;;;6.43;3.70;;;15.10;99.90;;;;;;5050788;28;20048;-74
2023/06/14 05:30:51;;;;;;;9.40;3.78;;;15.20;99.90;;;;;;5097670;27;20044;-74
2023/06/14 05:33:17;;;;;;;8.15;3.65;;;15.30;99.90;;;;;;5062444;28;20181;-74
2023/06/14 05:35:43;;;;;;;6.20;4.15;;;15.30;99.90;;;;;;5058466;28;20064;-74
2023/06/14 05:38:08;;;;;;;6.93;3.95;;;15.40;99.90;;;;;;5099158;27;20040;-74
2023/06/14 05:40:34;;;;;;;8.88;3.83;;;15.50;99.90;;;;;;5064160;28;20127;-74
2023/06/14 05:43:00;;;;;;;9.40;3.45;;;15.60;99.90;;;;;;5071078;28;20040;-74
2023/06/14 05:45:25;;;;;;;7.88;3.72;;;15.70;99.90;;;;;;5094682;27;20084;-74
2023/06/14 05:47:54;;;;;;;9.75;3.97;;;15.70;99.90;;;;;;5095845;27;20072;-75
2023/06/14 05:50:20;;;;;;;9.32;3.65;;;15.80;99.90;;;;;;5039881;28;20028;-74
2023/06/14 05:52:46;;;;;;;8.02;3.58;;;15.90;99.90;;;;;;5046828;28;20051;-74
2023/06/14 05:55:12;;;;;;;7.80;3.92;;;16.00;99.80;;;;;;5098996;27;20041;-74
2023/06/14 05:57:38;;;;;;;5.78;3.83;;;16.00;99.60;;;;;;5046574;28;20037;-74
2023/06/14 06:00:14;;;;;;;8.15;3.65;;;16.10;99.20;;;;;;5048546;28;20047;-74
2023/06/14 06:02:41;;;;;;;11.07;3.90;;;16.20;99.10;;;;;;5066461;28;20453;-74
2023/06/14 06:05:07;;;;;;;4.85;3.47;;;16.40;98.90;;;;;;5062369;28;20494;-74
2023/06/14 06:07:32;;;;;;;8.77;3.47;;;16.50;98.70;;;;;;5095253;27;20039;-74
2023/06/14 06:09:58;;;;;;;7.10;3.75;;;16.60;98.50;;;;;;5044511;28;20041;-74
2023/06/14 06:12:24;;;;;;;8.30;3.47;;;16.60;98.20;;;;;;5065429;28;20090;-74
2023/06/14 06:14:49;;;;;;;5.07;3.30;;;16.70;97.90;;;;;;5079374;28;20040;-75
2023/06/14 06:17:15;;;;;;;7.20;3.10;;;16.80;97.60;;;;;;5028995;28;20405;-73
2023/06/14 06:19:41;;;;;;;6.70;3.38;;;16.90;97.20;;;;;;5037823;28;20121;-68
2023/06/14 06:22:06;;;;;;;4.78;3.30;;;17.10;96.90;;;;;;5066177;28;20051;-67
2023/06/14 06:24:32;;;;;;;6.60;3.30;;;17.20;96.80;;;;;;5051075;28;20040;-69
2023/06/14 06:26:58;;;;;;;6.55;3.10;;;17.30;96.30;;;;;;5086424;28;20036;-67
2023/06/14 06:29:23;;;;;;;4.70;2.88;;;17.40;96.00;;;;;;5075342;28;20111;-67
2023/06/14 06:31:49;;;;;;;4.95;3.35;;;17.50;95.80;;;;;;5069611;28;20620;-66
2023/06/14 06:34:15;;;;;;;6.90;3.50;;;17.60;95.70;;;;;;5070679;28;20181;-65
2023/06/14 06:36:42;;;;;;;8.48;2.83;;;17.70;95.50;;;;;;5066412;28;20032;-75
2023/06/14 06:39:10;;;;;;;13.95;3.85;;;17.90;95.10;;;;;;5083943;28;20041;-75
2023/06/14 06:41:39;;;;;;;4.53;3.00;;;18.00;94.70;;;;;;5050493;28;20039;-75
2023/06/14 06:44:06;;;;;;;6.88;3.03;;;18.10;94.10;;;;;;5094321;28;20091;-75
2023/06/14 06:46:34;;;;;;;6.88;3.00;;;18.20;94.00;;;;;;5097777;28;20127;-75
2023/06/14 06:49:00;;;;;;;7.35;3.40;;;18.30;93.90;;;;;;5077366;28;20577;-75
2023/06/14 06:51:26;;;;;;;4.65;3.17;;;18.40;93.70;;;;;;5069841;28;20152;-75
2023/06/14 06:53:53;;;;;;;3.88;2.70;;;18.50;93.30;;;;;;5083624;28;20048;-75
2023/06/14 06:56:19;;;;;;;5.80;3.03;;;18.70;92.90;;;;;;5101772;28;20045;-75
2023/06/14 06:58:45;;;;;;;7.38;3.47;;;18.70;92.60;;;;;;5065554;28;20603;-75
2023/06/14 07:01:11;;;;;;;9.65;2.90;;;18.90;92.40;;;;;;5058830;28;20102;-75
2023/06/14 07:03:37;;;;;;;3.85;3.05;;;19.10;91.70;;;;;;5052585;28;20071;-75
2023/06/14 07:06:03;;;;;;;5.15;2.78;;;19.20;91.80;;;;;;5053673;28;20115;-75
2023/06/14 07:08:29;;;;;;;6.80;3.38;;;19.30;91.40;;;;;;5056894;28;20048;-75
2023/06/14 07:10:55;;;;;;;4.13;2.80;;;19.40;91.30;;;;;;5050619;28;20037;-75
2023/06/14 07:13:21;;;;;;;6.50;3.05;;;19.60;91.40;;;;;;5102750;28;20064;-75
2023/06/14 07:15:47;;;;;;;5.65;2.88;;;19.70;90.90;;;;;;5069716;28;20040;-76
2023/06/14 07:18:12;;;;;;;7.72;2.80;;;19.90;90.60;;;;;;5086677;28;20044;-76
2023/06/14 07:20:38;;;;;;;8.02;2.53;;;20.10;90.20;;;;;;5087109;28;20044;-76
2023/06/14 07:23:05;;;;;;;5.13;2.65;;;20.20;90.10;;;;;;5067668;28;20456;-76
2023/06/14 07:25:31;;;;;;;9.25;2.80;;;20.40;89.50;;;;;;5083959;28;20040;-75
2023/06/14 07:27:56;;;;;;;6.30;2.40;;;20.50;86.00;;;;;;5071691;28;20044;-75
2023/06/14 07:30:25;;;;;;;7.43;2.53;;;20.60;86.40;;;;;;5082350;28;20028;-75
2023/06/14 07:32:53;;;;;;;10.57;2.95;;;20.70;83.80;;;;;;5051221;28;20095;-75
2023/06/14 07:35:18;;;;;;;8.70;2.80;;;20.80;82.30;;;;;;5102581;28;20083;-75
2023/06/14 07:37:46;;;;;;;4.57;2.50;;;20.80;82.80;;;;;;5068474;28;20072;-74
2023/06/14 07:40:13;;;;;;;5.25;2.30;;;20.90;82.70;;;;;;5083684;28;20051;-74
2023/06/14 07:42:39;;;;;;;7.07;3.83;;;21.00;82.90;;;;;;5042171;28;20040;-74
2023/06/14 07:45:05;;;;;;;6.15;2.75;;;21.20;82.20;;;;;;5048897;28;20028;-74
2023/06/14 07:47:32;;;;;;;3.17;2.45;;;21.30;82.30;;;;;;5065279;28;20099;-74
2023/06/14 07:49:57;;;;;;;2.88;1.90;;;21.50;81.40;;;;;;5066062;28;20072;-74
2023/06/14 07:52:23;;;;;;;9.07;2.33;;;21.60;81.00;;;;;;5051873;28;20079;-74
2023/06/14 07:54:49;;;;;;;4.80;2.58;;;21.60;78.20;;;;;;5050681;28;20045;-74
2023/06/14 07:57:15;;;;;;;5.80;2.60;;;21.60;78.80;;;;;;5063218;28;20524;-74
2023/06/14 07:59:40;;;;;;;3.30;2.00;;;21.70;78.40;;;;;;5075810;28;20049;-74
2023/06/14 08:02:06;;;;;;;2.67;2.10;;;21.80;78.10;;;;;;5067965;28;20508;-74
2023/06/14 08:04:33;;;;;;;4.00;2.47;;;22.00;78.10;;;;;;5102408;28;20485;-74
2023/06/14 08:07:01;;;;;;;5.03;2.42;;;22.20;77.90;;;;;;5065879;28;20041;-74
2023/06/14 08:09:28;;;;;;;3.40;2.15;;;22.20;76.70;;;;;;5085938;28;20048;-74
2023/06/14 08:11:54;;;;;;;5.35;2.10;;;22.30;76.00;;;;;;5083475;28;20397;-74
2023/06/14 08:14:20;;;;;;;4.00;2.30;;;22.30;76.30;;;;;;5069257;28;20050;-74
2023/06/14 08:16:46;;;;;;;3.83;2.30;;;22.30;75.50;;;;;;5086368;28;20903;-74
2023/06/14 08:19:12;;;;;;;8.07;2.40;;;22.40;76.00;;;;;;5084946;28;20029;-74
2023/06/14 08:21:37;;;;;;;9.63;2.97;;;22.50;75.90;;;;;;5064967;28;20549;-74
2023/06/14 08:24:03;;;;;;;6.00;2.50;;;22.70;76.30;;;;;;5068607;28;20037;-74
2023/06/14 08:26:30;;;;;;;2.88;2.22;;;22.80;76.10;;;;;;5049259;28;20067;-74
2023/06/14 08:28:56;;;;;;;4.65;2.30;;;22.90;74.20;;;;;;5085834;28;20040;-75
2023/06/14 08:31:22;;;;;;;4.80;2.05;;;23.00;75.10;;;;;;5100229;28;20105;-74
2023/06/14 08:33:48;;;;;;;6.45;2.55;;;23.10;75.30;;;;;;5063637;28;20131;-74
2023/06/14 08:36:13;;;;;;;6.40;2.35;;;23.20;74.10;;;;;;5052148;28;20175;-74
2023/06/14 08:38:39;;;;;;;6.57;2.13;;;23.30;74.70;;;;;;5052348;28;20040;-75
2023/06/14 08:41:08;;;;;;;3.35;2.20;;;23.40;74.50;;;;;;5057936;28;20040;-75
2023/06/14 08:43:34;;;;;;;4.00;1.95;;;23.50;74.20;;;;;;5072323;28;20044;-75
2023/06/14 08:46:06;;;;;;;4.10;1.98;;;23.60;73.40;;;;;;5062219;28;20497;-75
2023/06/14 08:48:33;;;;;;;2.95;2.45;;;23.70;72.90;;;;;;5068832;28;20126;-75
2023/06/14 08:51:04;;;;;;;8.45;2.15;;;23.70;72.40;;;;;;5073160;28;20145;-75
2023/06/14 08:53:34;;;;;;;4.03;1.90;;;23.70;72.10;;;;;;5094959;28;20575;-74
2023/06/14 08:56:01;;;;;;;2.53;1.88;;;23.70;71.30;;;;;;5085305;28;20045;-74
2023/06/14 08:58:31;;;;;;;3.80;1.98;;;23.80;70.90;;;;;;5072232;28;20057;-74
2023/06/14 09:00:58;;;;;;;13.05;2.40;;;23.80;70.80;;;;;;5054767;28;20040;-74
2023/06/14 09:03:29;;;;;;;2.97;2.03;;;23.90;70.80;;;;;;5070614;28;20037;-74
2023/06/14 09:06:02;;;;;;;7.50;2.17;;;24.10;71.00;;;;;;5072693;28;20068;-74
2023/06/14 09:08:31;;;;;;;4.13;2.40;;;24.20;69.00;;;;;;5087227;28;20025;-74
2023/06/14 09:10:57;;;;;;;5.28;2.30;;;24.30;69.70;;;;;;5096023;28;20036;-74
2023/06/14 09:13:23;;;;;;;6.53;2.30;;;24.30;68.50;;;;;;5075949;28;20035;-74
2023/06/14 09:15:49;;;;;;;3.85;1.70;;;24.30;68.70;;;;;;5091469;28;20048;-74
2023/06/14 09:18:15;;;;;;;2.22;1.90;;;24.50;69.20;;;;;;5071820;28;20076;-74
2023/06/14 09:20:41;;;;;;;4.00;2.05;;;24.60;69.60;;;;;;5055672;28;20063;-75
2023/06/14 09:23:07;;;;;;;6.65;2.35;;;24.60;68.50;;;;;;5055813;28;20118;-75
2023/06/14 09:25:42;;;;;;;2.92;2.05;;;24.60;67.90;;;;;;5100665;28;20443;-75
2023/06/14 09:28:08;;;;;;;2.75;1.90;;;24.70;67.20;;;;;;5106148;28;20052;-75
2023/06/14 09:30:35;;;;;;;4.00;2.13;;;24.70;66.90;;;;;;5057359;28;20036;-75
2023/06/14 09:33:01;;;;;;;3.13;1.90;;;24.80;67.50;;;;;;5105571;28;20040;-75
2023/06/14 09:35:29;;;;;;;3.38;2.00;;;24.90;67.40;;;;;;5105860;28;20121;-75
2023/06/14 09:37:55;;;;;;;6.22;2.00;;;24.90;66.10;;;;;;5071042;28;20067;-75
2023/06/14 09:40:21;;;;;;;6.85;2.28;;;25.00;66.00;;;;;;5102717;28;20072;-75
2023/06/14 09:42:47;;;;;;;4.80;1.88;;;25.10;64.40;;;;;;5076944;28;20064;-75
2023/06/14 09:45:14;;;;;;;9.82;2.25;;;25.20;64.60;;;;;;5051173;28;20061;-75
2023/06/14 09:47:42;;;;;;;16.67;2.83;;;25.30;64.40;;;;;;5063025;28;20047;-75
2023/06/14 09:50:08;;;;;;;6.50;2.40;;;25.30;63.80;;;;;;5063512;28;20041;-75
2023/06/14 09:52:33;;;;;;;2.78;1.60;;;25.30;64.50;;;;;;5052405;28;20041;-75
2023/06/14 09:55:00;;;;;;;5.68;2.20;;;25.40;63.40;;;;;;5063525;28;20509;-75
2023/06/14 09:57:29;;;;;;;16.08;2.63;;;25.40;63.10;;;;;;5051777;28;20044;-75
2023/06/14 10:00:00;;;;;;;12.57;2.42;;;25.40;63.70;;;;;;5049400;28;20062;-75
2023/06/14 10:02:28;;;;;;;4.82;2.22;;;25.50;63.10;;;;;;5049932;28;20147;-75
2023/06/14 10:05:03;;;;;;;5.32;2.03;;;25.50;63.00;;;;;;5071720;28;20125;-75
2023/06/14 10:07:35;;;;;;;2.00;1.80;;;25.50;63.50;;;;;;5059455;28;20472;-75
2023/06/14 10:10:01;;;;;;;14.90;2.30;;;25.50;63.40;;;;;;5085818;28;20125;-75
2023/06/14 10:12:27;;;;;;;15.02;2.83;;;25.60;62.80;;;;;;5054126;28;20033;-75
2023/06/14 10:14:54;;;;;;;4.40;1.75;;;25.60;62.20;;;;;;5071527;28;20063;-75
2023/06/14 10:17:22;;;;;;;3.38;1.77;;;25.80;63.00;;;;;;5105386;28;20426;-75
2023/06/14 10:19:57;;;;;;;3.78;1.60;;;26.00;62.10;;;;;;5067353;28;20051;-75
2023/06/14 10:22:35;;;;;;;23.75;3.00;;;26.00;62.80;;;;;;5055530;28;20068;-75
2023/06/14 10:25:02;;;;;;;3.85;1.98;;;26.00;61.80;;;;;;5061569;28;20044;-75
2023/06/14 10:27:28;;;;;;;3.10;1.92;;;26.20;61.80;;;;;;5072135;28;20611;-75
2023/06/14 10:29:53;;;;;;;4.80;2.00;;;26.20;62.10;;;;;;5055399;28;20131;-75
2023/06/14 10:32:20;;;;;;;4.57;1.63;;;26.20;61.80;;;;;;5071035;28;20040;-75
2023/06/14 10:34:57;;;;;;;11.32;2.45;;;26.40;62.60;;;;;;5067215;28;20056;-75
2023/06/14 10:37:24;;;;;;;3.97;1.65;;;26.50;62.00;;;;;;5079369;28;20044;-75
2023/06/14 10:39:50;;;;;;;5.53;1.83;;;26.40;61.70;;;;;;5088529;28;20110;-75
2023/06/14 10:42:16;;;;;;;11.95;2.53;;;26.50;61.80;;;;;;5063970;28;20505;-75
2023/06/14 10:44:54;;;;;;;3.33;2.10;;;26.40;61.40;;;;;;5080275;28;20045;-75
2023/06/14 10:47:27;;;;;;;5.97;2.03;;;26.40;60.70;;;;;;5088688;28;20036;-75
2023/06/14 10:49:53;;;;;;;9.63;2.20;;;26.50;61.90;;;;;;5071622;28;20047;-76
2023/06/14 10:52:28;;;;;;;4.28;2.00;;;26.40;60.90;;;;;;5105086;28;20044;-75
2023/06/14 10:55:17;;;;;;;4.90;2.17;;;26.40;61.40;;;;;;5054948;28;20047;-75
2023/06/14 10:57:56;;;;;;;8.20;2.08;;;26.60;61.50;;;;;;5064677;28;20040;-75
2023/06/14 11:00:25;;;;;;;3.83;1.65;;;26.60;61.80;;;;;;5052053;28;20075;-75
2023/06/14 11:03:16;;;;;;;9.25;2.67;;;26.70;61.90;;;;;;5068022;28;20120;-75
2023/06/14 11:05:47;;;;;;;5.38;1.88;;;26.50;60.20;;;;;;5067518;28;20079;-75
2023/06/14 11:08:31;;;;;;;10.00;1.98;;;26.70;62.50;;;;;;5044215;28;20037;-75
2023/06/14 11:11:02;;;;;;;7.40;2.13;;;26.80;61.90;;;;;;5091258;28;20136;-75
2023/06/14 11:13:28;;;;;;;13.63;2.03;;;26.70;60.60;;;;;;5089825;28;20422;-75
2023/06/14 11:15:56;;;;;;;10.23;2.38;;;26.80;61.40;;;;;;5070722;28;20032;-75
2023/06/14 11:18:24;;;;;;;6.78;1.75;;;26.80;60.70;;;;;;5064349;28;20117;-75
2023/06/14 11:20:50;;;;;;;1.70;1.60;;;26.90;60.90;;;;;;5052381;28;20044;-74
2023/06/14 11:23:16;;;;;;;3.65;2.08;;;27.00;61.50;;;;;;5027131;28;20036;-75
2023/06/14 11:25:42;;;;;;;2.38;1.80;;;27.10;61.70;;;;;;5046721;28;20508;-79
2023/06/14 11:28:07;;;;;;;6.93;2.03;;;27.20;61.60;;;;;;5053622;28;20047;-77
2023/06/14 11:30:33;;;;;;;5.13;1.60;;;27.10;60.60;;;;;;5030487;28;20811;-78
2023/06/14 11:32:59;;;;;;;6.22;1.83;;;27.10;60.70;;;;;;5029856;28;20040;-77
2023/06/14 11:35:26;;;;;;;2.88;1.90;;;27.10;61.20;;;;;;5069334;28;20555;-76
2023/06/14 11:37:56;;;;;;;9.05;2.00;;;27.20;60.90;;;;;;5047999;28;20072;-77
2023/06/14 11:40:24;;;;;;;20.02;2.22;;;27.20;60.50;;;;;;5018279;28;20047;-74
2023/06/14 11:42:57;;;;;;;9.90;2.30;;;27.20;60.50;;;;;;5059425;28;20055;-76
2023/06/14 11:45:24;;;;;;;17.02;3.45;;;27.30;60.50;;;;;;5043724;28;20058;-77
2023/06/14 11:47:50;;;;;;;12.55;2.42;;;27.10;60.00;;;;;;5051218;28;20049;-82
2023/06/14 11:50:16;;;;;;;4.57;1.92;;;27.10;61.00;;;;;;5047926;28;20055;-82
2023/06/14 11:52:42;;;;;;;11.02;4.57;;;27.10;60.80;;;;;;5062128;28;20094;-79
2023/06/14 11:55:08;;;;;;;5.45;2.17;;;27.30;61.80;;;;;;5046718;28;20083;-79
2023/06/14 11:57:35;;;;;;;7.53;2.47;;;27.30;62.60;;;;;;5030195;28;20604;-80
2023/06/14 12:00:15;;;;;;;10.10;2.30;;;27.30;61.50;;;;;;5049116;28;20059;-77
2023/06/14 12:02:41;;;;;;;6.10;2.38;;;27.40;61.00;;;;;;5045474;28;20040;-80
2023/06/14 12:05:09;;;;;;;5.68;2.17;;;27.40;61.40;;;;;;5048932;28;20518;-81
2023/06/14 12:07:37;;;;;;;4.68;1.70;;;27.40;61.20;;;;;;5067583;28;20579;-81
2023/06/14 12:10:06;;;;;;;3.97;1.95;;;27.40;61.20;;;;;;5082190;28;20327;-79
2023/06/14 12:12:37;;;;;;;3.33;2.03;;;27.30;61.00;;;;;;5046300;28;20044;-79
2023/06/14 12:15:07;;;;;;;5.20;1.90;;;27.40;62.70;;;;;;5064507;28;20370;-81
2023/06/14 12:17:38;;;;;;;4.68;1.67;;;27.40;61.40;;;;;;5049233;28;20053;-76
2023/06/14 12:20:13;;;;;;;3.95;1.75;;;27.50;61.20;;;;;;5071789;28;20051;-80
2023/06/14 12:22:46;;;;;;;5.68;2.00;;;27.50;60.60;;;;;;5044990;28;20600;-77
2023/06/14 12:25:26;;;;;;;6.50;2.25;;;27.30;60.50;;;;;;5048716;28;20051;-77
2023/06/14 12:27:56;;;;;;;11.93;2.60;;;27.20;60.70;;;;;;5049065;28;20073;-77
2023/06/14 12:30:21;;;;;;;28.40;3.25;;;27.20;61.50;;;;;;5063016;28;20071;-77
2023/06/14 12:32:48;;;;;;;12.93;2.33;;;27.20;61.00;;;;;;5064383;28;20051;-77
2023/06/14 12:35:14;;;;;;;7.72;2.40;;;27.20;60.80;;;;;;5031516;28;20039;-78
2023/06/14 12:37:40;;;;;;;6.82;1.90;;;27.20;61.00;;;;;;5043514;28;20068;-79
2023/06/14 12:40:07;;;;;;;11.27;2.20;;;27.30;61.10;;;;;;5051795;28;20064;-79
2023/06/14 12:42:33;;;;;;;7.32;2.00;;;27.30;60.90;;;;;;5049519;28;20045;-80
2023/06/14 12:44:59;;;;;;;4.65;1.90;;;27.30;61.20;;;;;;5049477;28;20681;-79
2023/06/14 12:47:25;;;;;;;15.18;2.30;;;27.40;60.90;;;;;;5084882;28;20662;-79